sensor_id;sensor_type;location;lat;lon;timestamp;pressure;altitude;pressure_sealevel;temperature;humidity
15489;BME280;7846;48.830;9.116;2023-04-26T00:01:02;97902.28;;;11.26;64.99
15489;BME280;7846;48.830;9.116;2023-04-26T00:03:47;97898.59;;;11.10;65.60
15489;BME280;7846;48.830;9.116;2023-04-26T00:06:32;97897.91;;;11.00;65.06
15489;BME280;7846;48.830;9.116;2023-04-26T00:09:17;97894.34;;;11.18;64.34
15489;BME280;7846;48.830;9.116;2023-04-26T00:12:04;97896.50;;;10.80;64.98
15489;BME280;7846;48.830;9.116;2023-04-26T00:14:48;97902.06;;;10.77;65.22
15489;BME280;7846;48.830;9.116;2023-04-26T00:17:32;97903.59;;;10.87;65.26
15489;BME280;7846;48.830;9.116;2023-04-26T00:20:16;97904.81;;;10.67;66.05
15489;BME280;7846;48.830;9.116;2023-04-26T00:23:00;97904.50;;;10.70;65.16
15489;BME280;7846;48.830;9.116;2023-04-26T00:25:44;97902.59;;;10.80;64.99
15489;BME280;7846;48.830;9.116;2023-04-26T00:28:28;97905.19;;;10.72;64.10
15489;BME280;7846;48.830;9.116;2023-04-26T00:31:14;97902.72;;;10.79;64.58
15489;BME280;7846;48.830;9.116;2023-04-26T00:33:58;97908.88;;;10.35;65.88
15489;BME280;7846;48.830;9.116;2023-04-26T00:36:42;97901.81;;;10.62;64.87
15489;BME280;7846;48.830;9.116;2023-04-26T00:39:26;97900.47;;;10.58;65.14
15489;BME280;7846;48.830;9.116;2023-04-26T00:42:10;97898.31;;;10.53;65.61
15489;BME280;7846;48.830;9.116;2023-04-26T00:44:54;97907.34;;;10.51;65.58
15489;BME280;7846;48.830;9.116;2023-04-26T00:47:40;97916.41;;;10.56;65.42
15489;BME280;7846;48.830;9.116;2023-04-26T00:50:24;97907.72;;;10.38;66.61
15489;BME280;7846;48.830;9.116;2023-04-26T00:53:08;97913.94;;;10.29;66.56
15489;BME280;7846;48.830;9.116;2023-04-26T00:55:52;97913.75;;;10.30;66.06
15489;BME280;7846;48.830;9.116;2023-04-26T00:58:37;97914.22;;;10.26;65.91
15489;BME280;7846;48.830;9.116;2023-04-26T01:01:21;97906.91;;;10.37;65.52
15489;BME280;7846;48.830;9.116;2023-04-26T01:04:06;97908.97;;;10.52;65.13
15489;BME280;7846;48.830;9.116;2023-04-26T01:06:51;97903.31;;;10.38;65.37
15489;BME280;7846;48.830;9.116;2023-04-26T01:09:35;97914.09;;;10.27;65.17
15489;BME280;7846;48.830;9.116;2023-04-26T01:12:20;97909.78;;;10.08;65.95
15489;BME280;7846;48.830;9.116;2023-04-26T01:15:06;97923.78;;;9.91;66.41
15489;BME280;7846;48.830;9.116;2023-04-26T01:17:50;97917.38;;;10.11;65.82
15489;BME280;7846;48.830;9.116;2023-04-26T01:20:35;97913.53;;;10.24;65.29
15489;BME280;7846;48.830;9.116;2023-04-26T01:23:19;97898.72;;;10.40;64.52
15489;BME280;7846;48.830;9.116;2023-04-26T01:26:03;97909.38;;;10.57;63.78
15489;BME280;7846;48.830;9.116;2023-04-26T01:28:47;97908.19;;;10.15;64.55
15489;BME280;7846;48.830;9.116;2023-04-26T01:31:32;97898.97;;;10.29;64.57
15489;BME280;7846;48.830;9.116;2023-04-26T01:34:16;97906.09;;;10.37;64.62
15489;BME280;7846;48.830;9.116;2023-04-26T01:37:00;97908.16;;;10.25;64.15
15489;BME280;7846;48.830;9.116;2023-04-26T01:39:44;97908.34;;;10.14;64.66
15489;BME280;7846;48.830;9.116;2023-04-26T01:42:29;97909.47;;;9.93;65.24
15489;BME280;7846;48.830;9.116;2023-04-26T01:45:15;97911.59;;;10.08;65.34
15489;BME280;7846;48.830;9.116;2023-04-26T01:48:00;97906.09;;;10.19;64.57
15489;BME280;7846;48.830;9.116;2023-04-26T01:50:44;97901.59;;;10.11;65.47
15489;BME280;7846;48.830;9.116;2023-04-26T01:53:28;97911.34;;;10.19;65.04
15489;BME280;7846;48.830;9.116;2023-04-26T01:56:12;97909.25;;;10.05;65.66
15489;BME280;7846;48.830;9.116;2023-04-26T01:58:56;97909.34;;;9.77;67.23
15489;BME280;7846;48.830;9.116;2023-04-26T02:01:41;97904.31;;;10.02;67.11
15489;BME280;7846;48.830;9.116;2023-04-26T02:04:26;97903.16;;;10.04;66.74
15489;BME280;7846;48.830;9.116;2023-04-26T02:07:10;97902.16;;;10.23;66.45
15489;BME280;7846;48.830;9.116;2023-04-26T02:09:54;97903.03;;;10.24;66.30
15489;BME280;7846;48.830;9.116;2023-04-26T02:12:38;97910.06;;;10.23;66.79
15489;BME280;7846;48.830;9.116;2023-04-26T02:15:22;97894.38;;;10.31;66.03
15489;BME280;7846;48.830;9.116;2023-04-26T02:18:06;97898.16;;;10.29;66.17
15489;BME280;7846;48.830;9.116;2023-04-26T02:20:52;97901.22;;;10.24;66.15
15489;BME280;7846;48.830;9.116;2023-04-26T02:23:37;97902.94;;;10.33;66.93
15489;BME280;7846;48.830;9.116;2023-04-26T02:26:21;97908.53;;;9.94;68.24
15489;BME280;7846;48.830;9.116;2023-04-26T02:29:05;97903.16;;;10.04;68.15
15489;BME280;7846;48.830;9.116;2023-04-26T02:31:50;97914.75;;;10.11;67.89
15489;BME280;7846;48.830;9.116;2023-04-26T02:34:34;97904.59;;;10.16;67.84
15489;BME280;7846;48.830;9.116;2023-04-26T02:37:18;97904.44;;;10.00;68.18
15489;BME280;7846;48.830;9.116;2023-04-26T02:40:02;97912.28;;;9.74;68.75
15489;BME280;7846;48.830;9.116;2023-04-26T02:42:48;97914.25;;;9.72;69.36
15489;BME280;7846;48.830;9.116;2023-04-26T02:45:32;97917.69;;;9.73;69.02
15489;BME280;7846;48.830;9.116;2023-04-26T02:48:18;97911.84;;;9.61;70.23
15489;BME280;7846;48.830;9.116;2023-04-26T02:51:01;97908.22;;;9.62;70.05
15489;BME280;7846;48.830;9.116;2023-04-26T02:53:48;97915.19;;;9.71;71.21
15489;BME280;7846;48.830;9.116;2023-04-26T02:56:32;97915.63;;;9.49;71.03
15489;BME280;7846;48.830;9.116;2023-04-26T02:59:16;97908.28;;;9.52;71.12
15489;BME280;7846;48.830;9.116;2023-04-26T03:02:00;97909.41;;;9.50;71.04
15489;BME280;7846;48.830;9.116;2023-04-26T03:04:44;97912.25;;;9.56;71.11
15489;BME280;7846;48.830;9.116;2023-04-26T03:07:30;97908.28;;;9.52;71.06
15489;BME280;7846;48.830;9.116;2023-04-26T03:10:14;97910.50;;;9.29;71.82
15489;BME280;7846;48.830;9.116;2023-04-26T03:12:58;97913.47;;;9.62;70.53
15489;BME280;7846;48.830;9.116;2023-04-26T03:15:44;97910.38;;;9.66;70.62
15489;BME280;7846;48.830;9.116;2023-04-26T03:18:30;97914.53;;;9.69;70.78
15489;BME280;7846;48.830;9.116;2023-04-26T03:21:16;97918.66;;;9.54;70.24
15489;BME280;7846;48.830;9.116;2023-04-26T03:24:00;97916.59;;;9.48;70.48
15489;BME280;7846;48.830;9.116;2023-04-26T03:26:44;97921.09;;;9.37;71.06
15489;BME280;7846;48.830;9.116;2023-04-26T03:29:28;97915.25;;;9.43;70.63
15489;BME280;7846;48.830;9.116;2023-04-26T03:32:12;97921.31;;;9.44;71.08
15489;BME280;7846;48.830;9.116;2023-04-26T03:34:56;97919.00;;;9.41;70.84
15489;BME280;7846;48.830;9.116;2023-04-26T03:37:43;97920.06;;;9.48;71.58
15489;BME280;7846;48.830;9.116;2023-04-26T03:40:28;97912.28;;;9.29;71.27
15489;BME280;7846;48.830;9.116;2023-04-26T03:43:12;97911.13;;;9.13;71.79
15489;BME280;7846;48.830;9.116;2023-04-26T03:45:56;97905.88;;;9.13;71.49
15489;BME280;7846;48.830;9.116;2023-04-26T03:48:40;97910.31;;;9.13;71.02
15489;BME280;7846;48.830;9.116;2023-04-26T03:51:25;97911.50;;;8.91;72.07
15489;BME280;7846;48.830;9.116;2023-04-26T03:54:10;97907.00;;;8.83;72.17
15489;BME280;7846;48.830;9.116;2023-04-26T03:56:54;97910.28;;;8.85;71.56
15489;BME280;7846;48.830;9.116;2023-04-26T03:59:39;97910.34;;;8.76;72.34
15489;BME280;7846;48.830;9.116;2023-04-26T04:02:24;97912.13;;;8.75;72.01
15489;BME280;7846;48.830;9.116;2023-04-26T04:05:09;97913.50;;;8.69;72.65
15489;BME280;7846;48.830;9.116;2023-04-26T04:07:54;97916.16;;;8.60;71.96
15489;BME280;7846;48.830;9.116;2023-04-26T04:10:39;97913.31;;;8.53;73.80
15489;BME280;7846;48.830;9.116;2023-04-26T04:13:25;97907.50;;;8.50;72.64
15489;BME280;7846;48.830;9.116;2023-04-26T04:16:09;97911.44;;;8.63;73.07
15489;BME280;7846;48.830;9.116;2023-04-26T04:18:53;97909.91;;;8.70;72.48
15489;BME280;7846;48.830;9.116;2023-04-26T04:21:38;97907.28;;;8.70;72.27
15489;BME280;7846;48.830;9.116;2023-04-26T04:24:23;97900.13;;;8.63;72.85
15489;BME280;7846;48.830;9.116;2023-04-26T04:27:08;97906.34;;;8.71;72.85
15489;BME280;7846;48.830;9.116;2023-04-26T04:29:52;97911.75;;;8.60;73.69
15489;BME280;7846;48.830;9.116;2023-04-26T04:32:36;97918.88;;;8.78;72.70
15489;BME280;7846;48.830;9.116;2023-04-26T04:35:22;97912.38;;;8.82;72.43
15489;BME280;7846;48.830;9.116;2023-04-26T04:38:08;97919.69;;;8.78;72.46
15489;BME280;7846;48.830;9.116;2023-04-26T04:40:55;97929.06;;;8.90;72.02
15489;BME280;7846;48.830;9.116;2023-04-26T04:43:39;97923.13;;;8.79;72.41
15489;BME280;7846;48.830;9.116;2023-04-26T04:46:23;97927.00;;;8.84;72.70
15489;BME280;7846;48.830;9.116;2023-04-26T04:49:08;97928.69;;;9.13;71.78
15489;BME280;7846;48.830;9.116;2023-04-26T04:51:52;97930.72;;;9.19;71.43
15489;BME280;7846;48.830;9.116;2023-04-26T04:54:48;97930.19;;;9.43;71.94
15489;BME280;7846;48.830;9.116;2023-04-26T04:57:32;97926.72;;;9.15;71.49
15489;BME280;7846;48.830;9.116;2023-04-26T05:00:16;97935.69;;;9.22;72.00
15489;BME280;7846;48.830;9.116;2023-04-26T05:03:00;97943.56;;;9.22;72.03
15489;BME280;7846;48.830;9.116;2023-04-26T05:05:45;97941.34;;;9.27;72.19
15489;BME280;7846;48.830;9.116;2023-04-26T05:08:29;97944.44;;;9.40;71.73
15489;BME280;7846;48.830;9.116;2023-04-26T05:11:14;97940.34;;;9.56;71.77
15489;BME280;7846;48.830;9.116;2023-04-26T05:13:58;97949.28;;;9.63;71.06
15489;BME280;7846;48.830;9.116;2023-04-26T05:16:42;97948.09;;;9.75;71.08
15489;BME280;7846;48.830;9.116;2023-04-26T05:19:26;97966.59;;;9.83;70.75
15489;BME280;7846;48.830;9.116;2023-04-26T05:22:10;97960.28;;;9.94;70.58
15489;BME280;7846;48.830;9.116;2023-04-26T05:24:56;97959.34;;;9.50;70.98
15489;BME280;7846;48.830;9.116;2023-04-26T05:27:40;97967.84;;;9.34;71.71
15489;BME280;7846;48.830;9.116;2023-04-26T05:30:25;97972.13;;;9.35;72.61
15489;BME280;7846;48.830;9.116;2023-04-26T05:33:09;97968.31;;;9.92;71.28
15489;BME280;7846;48.830;9.116;2023-04-26T05:35:54;97979.59;;;10.03;70.29
15489;BME280;7846;48.830;9.116;2023-04-26T05:38:38;97971.41;;;10.06;69.37
15489;BME280;7846;48.830;9.116;2023-04-26T05:41:22;97974.13;;;10.14;69.61
15489;BME280;7846;48.830;9.116;2023-04-26T05:44:06;97978.69;;;9.94;70.64
15489;BME280;7846;48.830;9.116;2023-04-26T05:46:50;97967.72;;;10.34;68.81
15489;BME280;7846;48.830;9.116;2023-04-26T05:49:34;97991.63;;;10.41;68.11
15489;BME280;7846;48.830;9.116;2023-04-26T05:52:17;97980.56;;;10.55;67.89
15489;BME280;7846;48.830;9.116;2023-04-26T05:55:02;97983.66;;;10.51;67.84
15489;BME280;7846;48.830;9.116;2023-04-26T05:57:46;97986.34;;;10.23;68.33
15489;BME280;7846;48.830;9.116;2023-04-26T06:00:30;97977.47;;;10.60;67.20
15489;BME280;7846;48.830;9.116;2023-04-26T06:03:16;97986.47;;;10.75;66.65
15489;BME280;7846;48.830;9.116;2023-04-26T06:06:00;97981.09;;;11.11;65.87
15489;BME280;7846;48.830;9.116;2023-04-26T06:08:44;97982.38;;;11.07;65.11
15489;BME280;7846;48.830;9.116;2023-04-26T06:11:28;97991.06;;;11.33;65.18
15489;BME280;7846;48.830;9.116;2023-04-26T06:14:12;97987.47;;;11.08;65.95
15489;BME280;7846;48.830;9.116;2023-04-26T06:16:58;97987.41;;;10.92;64.25
15489;BME280;7846;48.830;9.116;2023-04-26T06:19:42;97994.44;;;10.83;64.52
15489;BME280;7846;48.830;9.116;2023-04-26T06:22:29;97997.44;;;10.71;65.13
15489;BME280;7846;48.830;9.116;2023-04-26T06:25:13;97991.94;;;11.08;64.20
15489;BME280;7846;48.830;9.116;2023-04-26T06:27:57;97995.94;;;11.46;62.95
15489;BME280;7846;48.830;9.116;2023-04-26T06:30:41;98001.63;;;11.76;63.20
15489;BME280;7846;48.830;9.116;2023-04-26T06:33:25;97999.00;;;11.76;62.45
15489;BME280;7846;48.830;9.116;2023-04-26T06:36:10;98004.22;;;12.02;62.40
15489;BME280;7846;48.830;9.116;2023-04-26T06:38:56;98003.41;;;11.67;61.27
15489;BME280;7846;48.830;9.116;2023-04-26T06:41:39;98004.13;;;11.35;61.10
15489;BME280;7846;48.830;9.116;2023-04-26T06:44:24;98001.25;;;11.20;61.36
15489;BME280;7846;48.830;9.116;2023-04-26T06:47:08;98000.59;;;10.74;62.58
15489;BME280;7846;48.830;9.116;2023-04-26T06:49:53;97991.34;;;11.99;59.76
15489;BME280;7846;48.830;9.116;2023-04-26T06:52:39;97997.91;;;11.18;59.58
15489;BME280;7846;48.830;9.116;2023-04-26T06:55:24;97999.25;;;11.56;59.94
15489;BME280;7846;48.830;9.116;2023-04-26T06:58:08;97997.41;;;11.14;59.85
15489;BME280;7846;48.830;9.116;2023-04-26T07:00:52;97995.75;;;11.13;60.00
15489;BME280;7846;48.830;9.116;2023-04-26T07:03:36;97994.66;;;11.58;59.27
15489;BME280;7846;48.830;9.116;2023-04-26T07:06:22;97993.19;;;11.30;58.44
15489;BME280;7846;48.830;9.116;2023-04-26T07:09:06;97983.78;;;12.20;58.12
15489;BME280;7846;48.830;9.116;2023-04-26T07:11:51;97982.47;;;12.49;55.34
15489;BME280;7846;48.830;9.116;2023-04-26T07:14:35;97980.91;;;13.03;53.95
15489;BME280;7846;48.830;9.116;2023-04-26T07:17:22;97976.59;;;13.19;51.62
15489;BME280;7846;48.830;9.116;2023-04-26T07:20:09;97979.47;;;12.84;50.54
15489;BME280;7846;48.830;9.116;2023-04-26T07:22:53;97977.63;;;12.93;49.02
15489;BME280;7846;48.830;9.116;2023-04-26T07:25:37;97967.31;;;13.31;52.35
15489;BME280;7846;48.830;9.116;2023-04-26T07:28:21;97974.88;;;12.46;49.62
15489;BME280;7846;48.830;9.116;2023-04-26T07:31:05;97970.84;;;13.07;48.88
15489;BME280;7846;48.830;9.116;2023-04-26T07:33:49;97976.25;;;13.69;49.26
15489;BME280;7846;48.830;9.116;2023-04-26T07:36:33;97974.47;;;13.62;49.09
15489;BME280;7846;48.830;9.116;2023-04-26T07:39:18;97968.19;;;13.63;49.75
15489;BME280;7846;48.830;9.116;2023-04-26T07:42:03;97972.56;;;12.51;49.54
15489;BME280;7846;48.830;9.116;2023-04-26T07:44:47;97968.22;;;13.54;49.27
15489;BME280;7846;48.830;9.116;2023-04-26T07:47:32;97977.19;;;13.45;48.97
15489;BME280;7846;48.830;9.116;2023-04-26T07:50:16;97972.47;;;13.08;48.68
15489;BME280;7846;48.830;9.116;2023-04-26T07:52:59;97964.63;;;13.78;49.57
15489;BME280;7846;48.830;9.116;2023-04-26T07:55:43;97970.69;;;13.56;48.00
15489;BME280;7846;48.830;9.116;2023-04-26T07:58:28;97969.81;;;14.64;46.11
15489;BME280;7846;48.830;9.116;2023-04-26T08:01:12;97981.31;;;14.56;48.64
15489;BME280;7846;48.830;9.116;2023-04-26T08:03:57;97978.94;;;14.84;46.39
15489;BME280;7846;48.830;9.116;2023-04-26T08:06:41;97978.03;;;15.36;46.67
15489;BME280;7846;48.830;9.116;2023-04-26T08:09:28;97975.19;;;15.67;45.62
15489;BME280;7846;48.830;9.116;2023-04-26T08:12:13;97981.94;;;15.85;45.93
15489;BME280;7846;48.830;9.116;2023-04-26T08:14:59;97978.28;;;14.82;46.24
15489;BME280;7846;48.830;9.116;2023-04-26T08:17:43;97988.75;;;13.44;48.54
15489;BME280;7846;48.830;9.116;2023-04-26T08:20:27;97980.22;;;13.18;50.33
15489;BME280;7846;48.830;9.116;2023-04-26T08:23:11;97987.56;;;14.17;48.72
15489;BME280;7846;48.830;9.116;2023-04-26T08:25:56;97996.97;;;14.43;48.81
15489;BME280;7846;48.830;9.116;2023-04-26T08:28:43;97982.47;;;13.53;50.61
15489;BME280;7846;48.830;9.116;2023-04-26T08:31:27;97979.81;;;13.53;50.10
15489;BME280;7846;48.830;9.116;2023-04-26T08:34:11;97993.69;;;12.67;50.73
15489;BME280;7846;48.830;9.116;2023-04-26T08:36:56;97985.53;;;13.01;50.09
15489;BME280;7846;48.830;9.116;2023-04-26T08:39:40;97984.72;;;13.01;48.93
15489;BME280;7846;48.830;9.116;2023-04-26T08:42:26;97988.53;;;14.16;49.34
15489;BME280;7846;48.830;9.116;2023-04-26T08:45:10;97977.22;;;13.76;49.12
15489;BME280;7846;48.830;9.116;2023-04-26T08:48:02;97977.75;;;15.16;47.12
15489;BME280;7846;48.830;9.116;2023-04-26T08:50:48;97981.59;;;14.99;46.77
15489;BME280;7846;48.830;9.116;2023-04-26T08:53:33;97984.25;;;15.29;46.64
15489;BME280;7846;48.830;9.116;2023-04-26T08:56:22;97989.34;;;13.94;46.93
15489;BME280;7846;48.830;9.116;2023-04-26T08:59:08;97984.75;;;14.65;47.58
15489;BME280;7846;48.830;9.116;2023-04-26T09:01:52;97982.97;;;13.41;46.55
15489;BME280;7846;48.830;9.116;2023-04-26T09:04:36;97992.19;;;14.38;46.48
15489;BME280;7846;48.830;9.116;2023-04-26T09:07:26;97992.38;;;14.97;44.70
15489;BME280;7846;48.830;9.116;2023-04-26T09:10:18;97982.59;;;15.13;44.67
15489;BME280;7846;48.830;9.116;2023-04-26T09:13:03;97982.53;;;14.22;46.71
15489;BME280;7846;48.830;9.116;2023-04-26T09:15:49;97988.13;;;14.27;46.66
15489;BME280;7846;48.830;9.116;2023-04-26T09:18:46;97987.47;;;14.48;46.06
15489;BME280;7846;48.830;9.116;2023-04-26T09:21:30;97982.59;;;14.14;44.97
15489;BME280;7846;48.830;9.116;2023-04-26T09:24:15;97979.50;;;15.54;42.96
15489;BME280;7846;48.830;9.116;2023-04-26T09:27:03;97983.75;;;15.99;42.22
15489;BME280;7846;48.830;9.116;2023-04-26T09:30:06;97979.38;;;16.34;42.68
15489;BME280;7846;48.830;9.116;2023-04-26T09:32:58;97973.25;;;16.12;42.36
15489;BME280;7846;48.830;9.116;2023-04-26T09:35:50;97971.81;;;16.10;42.48
15489;BME280;7846;48.830;9.116;2023-04-26T09:38:41;97967.25;;;16.47;41.57
15489;BME280;7846;48.830;9.116;2023-04-26T09:41:42;97964.03;;;14.98;42.63
15489;BME280;7846;48.830;9.116;2023-04-26T09:44:30;97961.00;;;15.60;42.23
15489;BME280;7846;48.830;9.116;2023-04-26T09:47:14;97962.38;;;16.50;40.05
15489;BME280;7846;48.830;9.116;2023-04-26T09:50:01;97964.91;;;16.80;41.31
15489;BME280;7846;48.830;9.116;2023-04-26T09:52:45;97966.75;;;15.79;41.38
15489;BME280;7846;48.830;9.116;2023-04-26T09:55:31;97961.22;;;15.95;42.16
15489;BME280;7846;48.830;9.116;2023-04-26T09:58:15;97965.31;;;16.83;41.20
15489;BME280;7846;48.830;9.116;2023-04-26T10:01:00;97966.38;;;16.67;40.81
15489;BME280;7846;48.830;9.116;2023-04-26T10:03:47;97967.75;;;17.13;40.97
15489;BME280;7846;48.830;9.116;2023-04-26T10:06:33;97964.59;;;18.47;39.02
15489;BME280;7846;48.830;9.116;2023-04-26T10:09:18;97956.41;;;18.81;39.13
15489;BME280;7846;48.830;9.116;2023-04-26T10:12:03;97958.63;;;18.45;38.25
15489;BME280;7846;48.830;9.116;2023-04-26T10:14:47;97957.38;;;18.27;39.21
15489;BME280;7846;48.830;9.116;2023-04-26T10:17:31;97953.31;;;17.70;38.53
15489;BME280;7846;48.830;9.116;2023-04-26T10:20:17;97950.63;;;17.22;40.07
15489;BME280;7846;48.830;9.116;2023-04-26T10:23:05;97946.13;;;17.64;38.77
15489;BME280;7846;48.830;9.116;2023-04-26T10:25:54;97949.72;;;16.74;39.30
15489;BME280;7846;48.830;9.116;2023-04-26T10:31:23;97943.63;;;15.72;41.50
15489;BME280;7846;48.830;9.116;2023-04-26T10:34:17;97947.09;;;15.73;42.54
15489;BME280;7846;48.830;9.116;2023-04-26T10:40:24;97935.31;;;16.68;42.10
15489;BME280;7846;48.830;9.116;2023-04-26T10:46:31;97938.84;;;16.26;41.03
15489;BME280;7846;48.830;9.116;2023-04-26T10:49:17;97934.34;;;16.05;41.39
15489;BME280;7846;48.830;9.116;2023-04-26T10:52:12;97933.88;;;15.43;41.31
15489;BME280;7846;48.830;9.116;2023-04-26T10:54:59;97931.00;;;15.45;42.63
15489;BME280;7846;48.830;9.116;2023-04-26T10:57:52;97930.59;;;16.42;40.02
15489;BME280;7846;48.830;9.116;2023-04-26T11:00:38;97925.38;;;17.05;39.47
15489;BME280;7846;48.830;9.116;2023-04-26T11:03:29;97929.03;;;17.45;40.36
15489;BME280;7846;48.830;9.116;2023-04-26T11:06:14;97923.59;;;17.18;39.36
15489;BME280;7846;48.830;9.116;2023-04-26T11:08:59;97927.06;;;16.35;39.14
15489;BME280;7846;48.830;9.116;2023-04-26T11:11:52;97926.94;;;17.34;38.19
15489;BME280;7846;48.830;9.116;2023-04-26T11:14:36;97925.44;;;17.18;38.45
15489;BME280;7846;48.830;9.116;2023-04-26T11:17:20;97919.16;;;16.41;37.82
15489;BME280;7846;48.830;9.116;2023-04-26T11:20:09;97910.41;;;17.45;37.75
15489;BME280;7846;48.830;9.116;2023-04-26T11:22:53;97910.72;;;16.59;39.46
15489;BME280;7846;48.830;9.116;2023-04-26T11:25:40;97901.81;;;18.04;40.39
15489;BME280;7846;48.830;9.116;2023-04-26T11:28:24;97891.69;;;17.18;38.71
15489;BME280;7846;48.830;9.116;2023-04-26T11:31:08;97892.88;;;17.09;39.35
15489;BME280;7846;48.830;9.116;2023-04-26T11:33:54;97887.50;;;15.61;41.54
15489;BME280;7846;48.830;9.116;2023-04-26T11:36:39;97883.38;;;16.37;40.44
15489;BME280;7846;48.830;9.116;2023-04-26T11:39:22;97876.78;;;17.85;37.40
15489;BME280;7846;48.830;9.116;2023-04-26T11:42:08;97873.03;;;17.66;38.64
15489;BME280;7846;48.830;9.116;2023-04-26T11:44:52;97868.00;;;18.45;37.58
15489;BME280;7846;48.830;9.116;2023-04-26T11:47:37;97874.00;;;16.13;39.74
15489;BME280;7846;48.830;9.116;2023-04-26T11:50:21;97872.16;;;17.05;39.57
15489;BME280;7846;48.830;9.116;2023-04-26T11:53:09;97863.97;;;16.37;39.47
15489;BME280;7846;48.830;9.116;2023-04-26T11:55:53;97857.47;;;16.46;39.21
15489;BME280;7846;48.830;9.116;2023-04-26T11:58:38;97859.59;;;16.85;37.88
15489;BME280;7846;48.830;9.116;2023-04-26T12:01:25;97857.06;;;17.73;37.09
15489;BME280;7846;48.830;9.116;2023-04-26T12:04:09;97862.00;;;17.83;36.26
15489;BME280;7846;48.830;9.116;2023-04-26T12:06:53;97865.66;;;17.62;36.34
15489;BME280;7846;48.830;9.116;2023-04-26T12:09:39;97860.81;;;18.78;35.17
15489;BME280;7846;48.830;9.116;2023-04-26T12:12:24;97854.81;;;18.96;33.86
15489;BME280;7846;48.830;9.116;2023-04-26T12:15:11;97854.94;;;19.66;34.49
15489;BME280;7846;48.830;9.116;2023-04-26T12:18:05;97854.97;;;20.23;34.33
15489;BME280;7846;48.830;9.116;2023-04-26T12:20:57;97855.38;;;20.51;33.64
15489;BME280;7846;48.830;9.116;2023-04-26T12:23:41;97850.16;;;19.30;33.87
15489;BME280;7846;48.830;9.116;2023-04-26T12:26:44;97847.38;;;20.20;35.60
15489;BME280;7846;48.830;9.116;2023-04-26T12:29:29;97848.16;;;20.52;33.41
15489;BME280;7846;48.830;9.116;2023-04-26T12:32:13;97854.38;;;21.44;31.52
15489;BME280;7846;48.830;9.116;2023-04-26T12:34:57;97852.06;;;21.30;33.26
15489;BME280;7846;48.830;9.116;2023-04-26T12:37:42;97845.81;;;20.62;32.75
15489;BME280;7846;48.830;9.116;2023-04-26T12:40:28;97848.41;;;20.44;31.13
15489;BME280;7846;48.830;9.116;2023-04-26T12:43:12;97840.38;;;19.55;33.30
15489;BME280;7846;48.830;9.116;2023-04-26T12:45:56;97848.50;;;18.84;34.19
15489;BME280;7846;48.830;9.116;2023-04-26T12:48:40;97832.97;;;19.64;33.84
15489;BME280;7846;48.830;9.116;2023-04-26T12:51:24;97835.53;;;20.59;32.15
15489;BME280;7846;48.830;9.116;2023-04-26T12:54:08;97831.78;;;22.71;29.98
15489;BME280;7846;48.830;9.116;2023-04-26T12:56:52;97832.31;;;22.03;30.48
15489;BME280;7846;48.830;9.116;2023-04-26T12:59:36;97831.00;;;21.93;31.54
15489;BME280;7846;48.830;9.116;2023-04-26T13:02:21;97833.50;;;21.77;32.07
15489;BME280;7846;48.830;9.116;2023-04-26T13:05:06;97835.06;;;25.00;27.78
15489;BME280;7846;48.830;9.116;2023-04-26T13:07:50;97842.41;;;26.03;25.97
15489;BME280;7846;48.830;9.116;2023-04-26T13:10:34;97843.16;;;24.83;28.47
15489;BME280;7846;48.830;9.116;2023-04-26T13:13:18;97841.00;;;22.40;31.21
15489;BME280;7846;48.830;9.116;2023-04-26T13:16:02;97839.84;;;24.76;29.25
15489;BME280;7846;48.830;9.116;2023-04-26T13:18:46;97832.13;;;23.96;29.46
15489;BME280;7846;48.830;9.116;2023-04-26T13:21:30;97829.81;;;23.87;28.83
15489;BME280;7846;48.830;9.116;2023-04-26T13:24:21;97826.25;;;24.32;28.37
15489;BME280;7846;48.830;9.116;2023-04-26T13:27:06;97823.00;;;20.96;31.29
15489;BME280;7846;48.830;9.116;2023-04-26T13:29:54;97811.38;;;22.58;30.72
15489;BME280;7846;48.830;9.116;2023-04-26T13:32:39;97812.53;;;23.26;29.41
15489;BME280;7846;48.830;9.116;2023-04-26T13:35:25;97822.78;;;22.65;29.83
15489;BME280;7846;48.830;9.116;2023-04-26T13:38:09;97818.09;;;19.75;32.87
15489;BME280;7846;48.830;9.116;2023-04-26T13:40:56;97809.59;;;19.91;33.18
15489;BME280;7846;48.830;9.116;2023-04-26T13:43:42;97815.66;;;20.73;32.18
15489;BME280;7846;48.830;9.116;2023-04-26T13:46:26;97816.53;;;21.53;31.61
15489;BME280;7846;48.830;9.116;2023-04-26T13:49:10;97817.25;;;21.11;30.88
15489;BME280;7846;48.830;9.116;2023-04-26T13:51:54;97820.44;;;22.10;30.62
15489;BME280;7846;48.830;9.116;2023-04-26T13:54:38;97818.03;;;21.79;30.86
15489;BME280;7846;48.830;9.116;2023-04-26T13:57:25;97815.69;;;21.70;31.24
15489;BME280;7846;48.830;9.116;2023-04-26T14:00:10;97813.66;;;22.08;30.48
15489;BME280;7846;48.830;9.116;2023-04-26T14:02:54;97821.41;;;21.74;30.70
15489;BME280;7846;48.830;9.116;2023-04-26T14:05:39;97811.03;;;21.17;31.42
15489;BME280;7846;48.830;9.116;2023-04-26T14:08:23;97809.19;;;21.48;30.89
15489;BME280;7846;48.830;9.116;2023-04-26T14:11:06;97801.91;;;20.88;31.72
15489;BME280;7846;48.830;9.116;2023-04-26T14:13:51;97803.44;;;20.59;31.99
15489;BME280;7846;48.830;9.116;2023-04-26T14:16:38;97805.69;;;19.87;33.01
15489;BME280;7846;48.830;9.116;2023-04-26T14:19:24;97787.59;;;20.14;33.99
15489;BME280;7846;48.830;9.116;2023-04-26T14:22:08;97791.06;;;21.13;32.41
15489;BME280;7846;48.830;9.116;2023-04-26T14:24:57;97790.13;;;22.57;31.97
15489;BME280;7846;48.830;9.116;2023-04-26T14:27:41;97787.19;;;23.51;30.01
15489;BME280;7846;48.830;9.116;2023-04-26T14:30:51;97798.34;;;24.94;28.58
15489;BME280;7846;48.830;9.116;2023-04-26T14:33:35;97799.91;;;22.04;31.48
15489;BME280;7846;48.830;9.116;2023-04-26T14:36:19;97793.56;;;20.35;33.98
15489;BME280;7846;48.830;9.116;2023-04-26T14:39:03;97798.47;;;18.46;36.01
15489;BME280;7846;48.830;9.116;2023-04-26T14:41:47;97800.97;;;18.41;36.81
15489;BME280;7846;48.830;9.116;2023-04-26T14:44:32;97791.44;;;18.92;36.30
15489;BME280;7846;48.830;9.116;2023-04-26T14:47:16;97797.09;;;18.10;37.08
15489;BME280;7846;48.830;9.116;2023-04-26T14:50:00;97801.63;;;17.15;37.85
15489;BME280;7846;48.830;9.116;2023-04-26T14:52:48;97792.91;;;19.57;36.08
15489;BME280;7846;48.830;9.116;2023-04-26T14:55:32;97793.63;;;19.78;34.92
15489;BME280;7846;48.830;9.116;2023-04-26T14:58:15;97799.13;;;18.08;37.09